sensor_id;sensor_type;location;lat;lon;timestamp;P1;durP1;ratioP1;P2;durP2;ratioP2
8413;SDS011;4244;48.684;9.028;2022-09-14T00:02:06;2.63;;;2.43;;
8413;SDS011;4244;48.684;9.028;2022-09-14T00:04:31;3.07;;;2.77;;
8413;SDS011;4244;48.684;9.028;2022-09-14T00:06:57;2.30;;;2.10;;
8413;SDS011;4244;48.684;9.028;2022-09-14T00:09:23;2.77;;;2.17;;
8413;SDS011;4244;48.684;9.028;2022-09-14T00:11:49;2.57;;;2.37;;
8413;SDS011;4244;48.684;9.028;2022-09-14T00:14:15;3.80;;;2.97;;
8413;SDS011;4244;48.684;9.028;2022-09-14T00:16:41;2.40;;;2.20;;
8413;SDS011;4244;48.684;9.028;2022-09-14T00:19:12;3.30;;;3.00;;
8413;SDS011;4244;48.684;9.028;2022-09-14T00:21:43;6.23;;;2.63;;
8413;SDS011;4244;48.684;9.028;2022-09-14T00:24:09;4.20;;;2.37;;
8413;SDS011;4244;48.684;9.028;2022-09-14T00:26:35;3.80;;;2.63;;
8413;SDS011;4244;48.684;9.028;2022-09-14T00:29:02;5.63;;;2.77;;
8413;SDS011;4244;48.684;9.028;2022-09-14T00:31:29;3.10;;;2.80;;
8413;SDS011;4244;48.684;9.028;2022-09-14T00:33:56;3.63;;;3.23;;
8413;SDS011;4244;48.684;9.028;2022-09-14T00:36:23;2.80;;;2.50;;
8413;SDS011;4244;48.684;9.028;2022-09-14T00:38:50;3.57;;;2.73;;
8413;SDS011;4244;48.684;9.028;2022-09-14T00:41:18;3.17;;;2.73;;
8413;SDS011;4244;48.684;9.028;2022-09-14T00:43:58;3.10;;;2.80;;
8413;SDS011;4244;48.684;9.028;2022-09-14T00:46:26;3.63;;;2.90;;
8413;SDS011;4244;48.684;9.028;2022-09-14T00:49:01;2.90;;;2.70;;
8413;SDS011;4244;48.684;9.028;2022-09-14T00:51:30;3.07;;;2.70;;
8413;SDS011;4244;48.684;9.028;2022-09-14T00:53:57;3.80;;;2.60;;
8413;SDS011;4244;48.684;9.028;2022-09-14T00:56:23;3.50;;;3.20;;
8413;SDS011;4244;48.684;9.028;2022-09-14T00:58:50;5.40;;;2.70;;
8413;SDS011;4244;48.684;9.028;2022-09-14T01:01:16;3.13;;;2.83;;
8413;SDS011;4244;48.684;9.028;2022-09-14T01:03:41;3.10;;;2.80;;
8413;SDS011;4244;48.684;9.028;2022-09-14T01:06:11;3.50;;;2.57;;
8413;SDS011;4244;48.684;9.028;2022-09-14T01:17:29;4.30;;;3.60;;
8413;SDS011;4244;48.684;9.028;2022-09-14T01:20:06;7.87;;;4.80;;
8413;SDS011;4244;48.684;9.028;2022-09-14T01:22:48;9.57;;;5.73;;
8413;SDS011;4244;48.684;9.028;2022-09-14T01:28:04;7.10;;;4.90;;
8413;SDS011;4244;48.684;9.028;2022-09-14T01:30:37;5.50;;;4.50;;
8413;SDS011;4244;48.684;9.028;2022-09-14T01:33:08;6.53;;;4.10;;
8413;SDS011;4244;48.684;9.028;2022-09-14T01:35:46;4.90;;;4.40;;
8413;SDS011;4244;48.684;9.028;2022-09-14T01:38:18;6.00;;;4.23;;
8413;SDS011;4244;48.684;9.028;2022-09-14T01:41:15;5.50;;;4.67;;
8413;SDS011;4244;48.684;9.028;2022-09-14T01:43:48;5.63;;;3.87;;
8413;SDS011;4244;48.684;9.028;2022-09-14T01:46:24;7.57;;;3.93;;
8413;SDS011;4244;48.684;9.028;2022-09-14T01:48:58;5.00;;;3.27;;
8413;SDS011;4244;48.684;9.028;2022-09-14T01:52:08;3.60;;;3.30;;
8413;SDS011;4244;48.684;9.028;2022-09-14T01:54:38;6.77;;;4.30;;
8413;SDS011;4244;48.684;9.028;2022-09-14T01:59:44;5.30;;;3.80;;
8413;SDS011;4244;48.684;9.028;2022-09-14T02:02:19;6.20;;;4.00;;
8413;SDS011;4244;48.684;9.028;2022-09-14T02:07:27;9.50;;;4.47;;
8413;SDS011;4244;48.684;9.028;2022-09-14T02:09:53;4.90;;;4.00;;
8413;SDS011;4244;48.684;9.028;2022-09-14T02:12:20;4.47;;;3.83;;
8413;SDS011;4244;48.684;9.028;2022-09-14T02:14:46;4.40;;;4.00;;
8413;SDS011;4244;48.684;9.028;2022-09-14T02:17:12;4.90;;;4.50;;
8413;SDS011;4244;48.684;9.028;2022-09-14T02:19:51;4.43;;;4.00;;
8413;SDS011;4244;48.684;9.028;2022-09-14T02:22:20;4.63;;;4.17;;
8413;SDS011;4244;48.684;9.028;2022-09-14T02:24:46;5.40;;;4.90;;
8413;SDS011;4244;48.684;9.028;2022-09-14T02:27:12;4.47;;;3.90;;
8413;SDS011;4244;48.684;9.028;2022-09-14T02:29:37;7.30;;;4.90;;
8413;SDS011;4244;48.684;9.028;2022-09-14T02:32:07;4.73;;;4.33;;
8413;SDS011;4244;48.684;9.028;2022-09-14T02:52:40;4.20;;;3.77;;
8413;SDS011;4244;48.684;9.028;2022-09-14T02:55:13;4.60;;;3.67;;
8413;SDS011;4244;48.684;9.028;2022-09-14T03:00:34;4.40;;;4.10;;
8413;SDS011;4244;48.684;9.028;2022-09-14T03:03:05;6.03;;;3.93;;
8413;SDS011;4244;48.684;9.028;2022-09-14T03:05:32;4.20;;;3.80;;
8413;SDS011;4244;48.684;9.028;2022-09-14T03:07:58;4.57;;;4.13;;
8413;SDS011;4244;48.684;9.028;2022-09-14T03:10:25;4.77;;;4.27;;
8413;SDS011;4244;48.684;9.028;2022-09-14T03:12:51;5.87;;;4.27;;
8413;SDS011;4244;48.684;9.028;2022-09-14T03:15:17;4.67;;;4.23;;
8413;SDS011;4244;48.684;9.028;2022-09-14T03:17:45;4.83;;;4.23;;
8413;SDS011;4244;48.684;9.028;2022-09-14T03:20:16;4.80;;;4.30;;
8413;SDS011;4244;48.684;9.028;2022-09-14T03:22:43;5.27;;;4.77;;
8413;SDS011;4244;48.684;9.028;2022-09-14T03:25:09;5.17;;;4.67;;
8413;SDS011;4244;48.684;9.028;2022-09-14T03:27:35;4.60;;;4.20;;
8413;SDS011;4244;48.684;9.028;2022-09-14T03:30:01;5.23;;;4.73;;
8413;SDS011;4244;48.684;9.028;2022-09-14T03:32:28;5.80;;;4.60;;
8413;SDS011;4244;48.684;9.028;2022-09-14T03:34:53;4.53;;;4.13;;
8413;SDS011;4244;48.684;9.028;2022-09-14T03:37:19;5.40;;;4.40;;
8413;SDS011;4244;48.684;9.028;2022-09-14T03:39:45;5.07;;;4.67;;
8413;SDS011;4244;48.684;9.028;2022-09-14T03:42:10;5.03;;;4.57;;
8413;SDS011;4244;48.684;9.028;2022-09-14T03:44:36;5.47;;;4.57;;
8413;SDS011;4244;48.684;9.028;2022-09-14T03:47:01;4.83;;;4.37;;
8413;SDS011;4244;48.684;9.028;2022-09-14T03:49:27;7.00;;;4.70;;
8413;SDS011;4244;48.684;9.028;2022-09-14T03:51:52;8.67;;;5.13;;
8413;SDS011;4244;48.684;9.028;2022-09-14T03:54:18;4.50;;;4.10;;
8413;SDS011;4244;48.684;9.028;2022-09-14T03:56:44;4.83;;;4.40;;
8413;SDS011;4244;48.684;9.028;2022-09-14T03:59:09;4.80;;;4.30;;
8413;SDS011;4244;48.684;9.028;2022-09-14T04:01:35;4.60;;;4.20;;
8413;SDS011;4244;48.684;9.028;2022-09-14T04:04:02;4.63;;;4.07;;
8413;SDS011;4244;48.684;9.028;2022-09-14T04:06:28;5.90;;;4.73;;
8413;SDS011;4244;48.684;9.028;2022-09-14T04:08:54;5.07;;;4.60;;
8413;SDS011;4244;48.684;9.028;2022-09-14T04:11:23;5.20;;;4.70;;
8413;SDS011;4244;48.684;9.028;2022-09-14T04:13:49;4.73;;;4.33;;
8413;SDS011;4244;48.684;9.028;2022-09-14T04:16:16;4.63;;;4.23;;
8413;SDS011;4244;48.684;9.028;2022-09-14T04:18:45;6.10;;;4.60;;
8413;SDS011;4244;48.684;9.028;2022-09-14T04:21:21;4.73;;;4.40;;
8413;SDS011;4244;48.684;9.028;2022-09-14T04:23:50;5.20;;;4.70;;
8413;SDS011;4244;48.684;9.028;2022-09-14T04:26:18;5.10;;;4.70;;
8413;SDS011;4244;48.684;9.028;2022-09-14T04:28:44;5.73;;;4.80;;
8413;SDS011;4244;48.684;9.028;2022-09-14T04:31:10;5.50;;;5.00;;
8413;SDS011;4244;48.684;9.028;2022-09-14T04:33:37;5.17;;;4.77;;
8413;SDS011;4244;48.684;9.028;2022-09-14T04:36:04;5.90;;;5.40;;
8413;SDS011;4244;48.684;9.028;2022-09-14T04:38:35;5.93;;;5.33;;
8413;SDS011;4244;48.684;9.028;2022-09-14T04:41:07;6.07;;;5.43;;
8413;SDS011;4244;48.684;9.028;2022-09-14T04:43:34;5.40;;;4.90;;
8413;SDS011;4244;48.684;9.028;2022-09-14T04:46:01;6.30;;;5.80;;
8413;SDS011;4244;48.684;9.028;2022-09-14T04:48:31;6.90;;;6.00;;
8413;SDS011;4244;48.684;9.028;2022-09-14T04:51:06;6.20;;;5.60;;
8413;SDS011;4244;48.684;9.028;2022-09-14T04:53:37;6.80;;;6.03;;
8413;SDS011;4244;48.684;9.028;2022-09-14T04:56:05;6.70;;;6.10;;
8413;SDS011;4244;48.684;9.028;2022-09-14T04:58:33;6.83;;;6.30;;
8413;SDS011;4244;48.684;9.028;2022-09-14T05:01:00;7.50;;;6.67;;
8413;SDS011;4244;48.684;9.028;2022-09-14T05:03:30;8.47;;;6.57;;
8413;SDS011;4244;48.684;9.028;2022-09-14T05:06:03;7.17;;;6.57;;
8413;SDS011;4244;48.684;9.028;2022-09-14T05:08:29;8.40;;;7.33;;
8413;SDS011;4244;48.684;9.028;2022-09-14T05:10:56;7.40;;;6.70;;
8413;SDS011;4244;48.684;9.028;2022-09-14T05:13:22;7.50;;;6.90;;
8413;SDS011;4244;48.684;9.028;2022-09-14T05:15:48;7.37;;;6.67;;
8413;SDS011;4244;48.684;9.028;2022-09-14T05:18:14;7.67;;;6.97;;
8413;SDS011;4244;48.684;9.028;2022-09-14T05:20:40;7.90;;;7.00;;
8413;SDS011;4244;48.684;9.028;2022-09-14T05:23:06;7.80;;;7.10;;
8413;SDS011;4244;48.684;9.028;2022-09-14T05:25:31;7.80;;;7.07;;
8413;SDS011;4244;48.684;9.028;2022-09-14T05:27:57;10.40;;;7.37;;
8413;SDS011;4244;48.684;9.028;2022-09-14T05:30:23;7.40;;;6.70;;
8413;SDS011;4244;48.684;9.028;2022-09-14T05:32:49;8.43;;;7.30;;
8413;SDS011;4244;48.684;9.028;2022-09-14T05:35:15;10.97;;;6.80;;
8413;SDS011;4244;48.684;9.028;2022-09-14T05:37:40;7.80;;;7.10;;
8413;SDS011;4244;48.684;9.028;2022-09-14T05:40:06;8.10;;;7.40;;
8413;SDS011;4244;48.684;9.028;2022-09-14T05:42:32;8.53;;;6.80;;
8413;SDS011;4244;48.684;9.028;2022-09-14T05:44:58;7.60;;;6.90;;
8413;SDS011;4244;48.684;9.028;2022-09-14T05:47:24;7.73;;;7.13;;
8413;SDS011;4244;48.684;9.028;2022-09-14T05:49:52;7.30;;;6.23;;
8413;SDS011;4244;48.684;9.028;2022-09-14T05:52:18;6.20;;;5.73;;
8413;SDS011;4244;48.684;9.028;2022-09-14T05:54:44;6.50;;;6.00;;
8413;SDS011;4244;48.684;9.028;2022-09-14T05:57:10;7.50;;;6.80;;
8413;SDS011;4244;48.684;9.028;2022-09-14T05:59:35;7.60;;;6.37;;
8413;SDS011;4244;48.684;9.028;2022-09-14T06:02:01;7.10;;;6.40;;
8413;SDS011;4244;48.684;9.028;2022-09-14T06:04:27;6.20;;;5.60;;
8413;SDS011;4244;48.684;9.028;2022-09-14T06:06:53;7.07;;;5.70;;
8413;SDS011;4244;48.684;9.028;2022-09-14T06:09:18;6.97;;;6.10;;
8413;SDS011;4244;48.684;9.028;2022-09-14T06:11:44;6.20;;;5.60;;
8413;SDS011;4244;48.684;9.028;2022-09-14T06:14:09;6.50;;;5.90;;
8413;SDS011;4244;48.684;9.028;2022-09-14T06:16:35;5.77;;;5.27;;
8413;SDS011;4244;48.684;9.028;2022-09-14T06:19:01;6.13;;;5.70;;
8413;SDS011;4244;48.684;9.028;2022-09-14T06:21:28;5.80;;;5.30;;
8413;SDS011;4244;48.684;9.028;2022-09-14T06:23:55;7.20;;;5.60;;
8413;SDS011;4244;48.684;9.028;2022-09-14T06:26:21;6.20;;;5.60;;
8413;SDS011;4244;48.684;9.028;2022-09-14T06:28:47;6.73;;;5.97;;
8413;SDS011;4244;48.684;9.028;2022-09-14T06:31:14;5.93;;;5.43;;
8413;SDS011;4244;48.684;9.028;2022-09-14T06:33:42;5.60;;;5.20;;
8413;SDS011;4244;48.684;9.028;2022-09-14T06:36:09;7.70;;;5.30;;
8413;SDS011;4244;48.684;9.028;2022-09-14T06:38:37;7.77;;;6.43;;
8413;SDS011;4244;48.684;9.028;2022-09-14T06:41:03;5.73;;;5.23;;
8413;SDS011;4244;48.684;9.028;2022-09-14T06:43:32;11.27;;;6.20;;
8413;SDS011;4244;48.684;9.028;2022-09-14T06:46:21;5.40;;;4.73;;
8413;SDS011;4244;48.684;9.028;2022-09-14T06:48:48;6.73;;;5.73;;
8413;SDS011;4244;48.684;9.028;2022-09-14T06:51:16;5.73;;;5.10;;
8413;SDS011;4244;48.684;9.028;2022-09-14T06:53:54;5.30;;;4.80;;
8413;SDS011;4244;48.684;9.028;2022-09-14T06:56:20;5.70;;;5.10;;
8413;SDS011;4244;48.684;9.028;2022-09-14T06:58:46;6.03;;;5.30;;
8413;SDS011;4244;48.684;9.028;2022-09-14T07:01:13;5.57;;;4.73;;
8413;SDS011;4244;48.684;9.028;2022-09-14T07:03:39;5.40;;;4.97;;
8413;SDS011;4244;48.684;9.028;2022-09-14T07:06:08;7.37;;;5.13;;
8413;SDS011;4244;48.684;9.028;2022-09-14T07:08:35;10.77;;;5.20;;
8413;SDS011;4244;48.684;9.028;2022-09-14T07:11:03;6.27;;;5.23;;
8413;SDS011;4244;48.684;9.028;2022-09-14T07:13:29;6.57;;;5.60;;
8413;SDS011;4244;48.684;9.028;2022-09-14T07:15:55;5.63;;;5.00;;
8413;SDS011;4244;48.684;9.028;2022-09-14T07:18:23;5.30;;;4.90;;
8413;SDS011;4244;48.684;9.028;2022-09-14T07:21:00;6.13;;;5.57;;
8413;SDS011;4244;48.684;9.028;2022-09-14T07:23:31;10.43;;;5.13;;
8413;SDS011;4244;48.684;9.028;2022-09-14T07:26:01;5.30;;;4.80;;
8413;SDS011;4244;48.684;9.028;2022-09-14T07:28:29;8.40;;;5.00;;
8413;SDS011;4244;48.684;9.028;2022-09-14T07:30:54;5.10;;;4.70;;
8413;SDS011;4244;48.684;9.028;2022-09-14T07:33:20;6.80;;;4.97;;
8413;SDS011;4244;48.684;9.028;2022-09-14T07:35:46;6.17;;;4.60;;
8413;SDS011;4244;48.684;9.028;2022-09-14T07:38:11;6.20;;;5.00;;
8413;SDS011;4244;48.684;9.028;2022-09-14T07:40:37;5.40;;;4.70;;
8413;SDS011;4244;48.684;9.028;2022-09-14T07:43:03;4.70;;;4.13;;
8413;SDS011;4244;48.684;9.028;2022-09-14T07:45:28;4.43;;;4.03;;
8413;SDS011;4244;48.684;9.028;2022-09-14T07:47:55;4.10;;;3.80;;
8413;SDS011;4244;48.684;9.028;2022-09-14T07:50:20;5.57;;;4.30;;
8413;SDS011;4244;48.684;9.028;2022-09-14T07:52:48;4.80;;;4.40;;
8413;SDS011;4244;48.684;9.028;2022-09-14T07:55:15;5.70;;;4.00;;
8413;SDS011;4244;48.684;9.028;2022-09-14T07:57:41;4.37;;;3.80;;
8413;SDS011;4244;48.684;9.028;2022-09-14T08:00:07;6.20;;;4.10;;
8413;SDS011;4244;48.684;9.028;2022-09-14T08:02:34;5.17;;;4.20;;
8413;SDS011;4244;48.684;9.028;2022-09-14T08:05:00;4.50;;;4.10;;
8413;SDS011;4244;48.684;9.028;2022-09-14T08:07:25;4.77;;;4.23;;
8413;SDS011;4244;48.684;9.028;2022-09-14T08:09:51;4.43;;;3.60;;
8413;SDS011;4244;48.684;9.028;2022-09-14T08:12:17;5.00;;;3.80;;
8413;SDS011;4244;48.684;9.028;2022-09-14T08:14:42;5.90;;;4.40;;
8413;SDS011;4244;48.684;9.028;2022-09-14T08:17:08;5.53;;;4.37;;
8413;SDS011;4244;48.684;9.028;2022-09-14T08:19:34;3.90;;;3.60;;
8413;SDS011;4244;48.684;9.028;2022-09-14T08:22:01;4.13;;;3.80;;
8413;SDS011;4244;48.684;9.028;2022-09-14T08:24:28;5.73;;;4.80;;
8413;SDS011;4244;48.684;9.028;2022-09-14T08:26:54;3.90;;;3.40;;
8413;SDS011;4244;48.684;9.028;2022-09-14T08:29:20;5.07;;;3.80;;
8413;SDS011;4244;48.684;9.028;2022-09-14T08:31:46;4.90;;;4.30;;
8413;SDS011;4244;48.684;9.028;2022-09-14T08:34:16;5.77;;;4.40;;
8413;SDS011;4244;48.684;9.028;2022-09-14T08:36:43;5.70;;;4.60;;
8413;SDS011;4244;48.684;9.028;2022-09-14T08:39:10;7.07;;;4.30;;
8413;SDS011;4244;48.684;9.028;2022-09-14T08:41:53;4.77;;;4.30;;
8413;SDS011;4244;48.684;9.028;2022-09-14T08:44:30;5.77;;;4.53;;
8413;SDS011;4244;48.684;9.028;2022-09-14T08:47:12;4.50;;;3.80;;
8413;SDS011;4244;48.684;9.028;2022-09-14T08:50:02;5.17;;;3.87;;
8413;SDS011;4244;48.684;9.028;2022-09-14T08:52:51;3.70;;;3.30;;
8413;SDS011;4244;48.684;9.028;2022-09-14T09:01:22;4.67;;;3.47;;
8413;SDS011;4244;48.684;9.028;2022-09-14T09:04:13;5.20;;;3.50;;
8413;SDS011;4244;48.684;9.028;2022-09-14T09:09:32;5.00;;;3.83;;
8413;SDS011;4244;48.684;9.028;2022-09-14T09:11:59;4.00;;;3.60;;
8413;SDS011;4244;48.684;9.028;2022-09-14T09:16:56;4.00;;;3.23;;
8413;SDS011;4244;48.684;9.028;2022-09-14T09:19:25;4.07;;;3.67;;
8413;SDS011;4244;48.684;9.028;2022-09-14T09:22:02;3.87;;;3.57;;
8413;SDS011;4244;48.684;9.028;2022-09-14T09:24:37;4.23;;;3.83;;
8413;SDS011;4244;48.684;9.028;2022-09-14T09:27:08;7.13;;;3.50;;
8413;SDS011;4244;48.684;9.028;2022-09-14T09:29:37;4.23;;;3.33;;
8413;SDS011;4244;48.684;9.028;2022-09-14T09:32:03;3.90;;;3.60;;
8413;SDS011;4244;48.684;9.028;2022-09-14T09:34:31;4.40;;;3.57;;
8413;SDS011;4244;48.684;9.028;2022-09-14T09:36:58;3.80;;;3.47;;
8413;SDS011;4244;48.684;9.028;2022-09-14T09:39:25;3.43;;;3.13;;
8413;SDS011;4244;48.684;9.028;2022-09-14T09:42:00;5.33;;;3.83;;
8413;SDS011;4244;48.684;9.028;2022-09-14T09:44:51;4.70;;;3.43;;
8413;SDS011;4244;48.684;9.028;2022-09-14T09:47:53;4.50;;;3.60;;
8413;SDS011;4244;48.684;9.028;2022-09-14T09:52:37;4.40;;;3.60;;
8413;SDS011;4244;48.684;9.028;2022-09-14T09:55:03;4.70;;;3.43;;
8413;SDS011;4244;48.684;9.028;2022-09-14T09:57:31;5.27;;;3.50;;
8413;SDS011;4244;48.684;9.028;2022-09-14T10:00:16;6.37;;;3.50;;
8413;SDS011;4244;48.684;9.028;2022-09-14T10:02:49;4.27;;;3.97;;
8413;SDS011;4244;48.684;9.028;2022-09-14T10:10:14;4.47;;;3.50;;
8413;SDS011;4244;48.684;9.028;2022-09-14T10:12:48;5.30;;;3.50;;
8413;SDS011;4244;48.684;9.028;2022-09-14T10:15:25;4.07;;;3.77;;
8413;SDS011;4244;48.684;9.028;2022-09-14T10:17:54;4.57;;;4.17;;
8413;SDS011;4244;48.684;9.028;2022-09-14T10:25:47;8.07;;;3.53;;
8413;SDS011;4244;48.684;9.028;2022-09-14T10:30:58;4.30;;;3.90;;
8413;SDS011;4244;48.684;9.028;2022-09-14T10:33:26;4.17;;;3.67;;
8413;SDS011;4244;48.684;9.028;2022-09-14T10:36:01;3.93;;;3.30;;
8413;SDS011;4244;48.684;9.028;2022-09-14T10:38:32;4.13;;;3.67;;
8413;SDS011;4244;48.684;9.028;2022-09-14T10:41:04;3.80;;;3.50;;
8413;SDS011;4244;48.684;9.028;2022-09-14T10:43:42;3.93;;;3.60;;
8413;SDS011;4244;48.684;9.028;2022-09-14T10:57:29;3.80;;;3.50;;
8413;SDS011;4244;48.684;9.028;2022-09-14T11:00:14;3.60;;;3.30;;
8413;SDS011;4244;48.684;9.028;2022-09-14T11:16:45;3.57;;;3.27;;
8413;SDS011;4244;48.684;9.028;2022-09-14T11:24:18;4.40;;;3.20;;
8413;SDS011;4244;48.684;9.028;2022-09-14T11:30:13;3.90;;;3.00;;
8413;SDS011;4244;48.684;9.028;2022-09-14T11:38:09;5.83;;;3.13;;
8413;SDS011;4244;48.684;9.028;2022-09-14T11:40:46;3.20;;;2.90;;
8413;SDS011;4244;48.684;9.028;2022-09-14T11:43:19;4.97;;;2.93;;
8413;SDS011;4244;48.684;9.028;2022-09-14T11:46:01;4.73;;;3.40;;
8413;SDS011;4244;48.684;9.028;2022-09-14T11:48:36;3.67;;;2.97;;
8413;SDS011;4244;48.684;9.028;2022-09-14T11:53:34;4.10;;;3.33;;
8413;SDS011;4244;48.684;9.028;2022-09-14T11:56:00;3.60;;;3.23;;
8413;SDS011;4244;48.684;9.028;2022-09-14T11:58:26;3.50;;;3.20;;
8413;SDS011;4244;48.684;9.028;2022-09-14T12:01:00;3.70;;;3.03;;
8413;SDS011;4244;48.684;9.028;2022-09-14T12:09:29;4.63;;;3.33;;
8413;SDS011;4244;48.684;9.028;2022-09-14T12:11:47;8.50;;;3.20;;
8413;SDS011;4244;48.684;9.028;2022-09-14T12:19:39;4.90;;;3.73;;
8413;SDS011;4244;48.684;9.028;2022-09-14T12:22:18;8.93;;;3.60;;
8413;SDS011;4244;48.684;9.028;2022-09-14T12:24:44;5.50;;;3.43;;
8413;SDS011;4244;48.684;9.028;2022-09-14T12:27:21;6.27;;;3.43;;
8413;SDS011;4244;48.684;9.028;2022-09-14T12:29:47;3.90;;;3.20;;
8413;SDS011;4244;48.684;9.028;2022-09-14T12:32:23;6.27;;;3.50;;
8413;SDS011;4244;48.684;9.028;2022-09-14T12:40:59;6.63;;;4.37;;
8413;SDS011;4244;48.684;9.028;2022-09-14T13:04:56;5.60;;;4.33;;
8413;SDS011;4244;48.684;9.028;2022-09-14T13:07:22;5.63;;;4.03;;
8413;SDS011;4244;48.684;9.028;2022-09-14T13:09:53;7.20;;;4.37;;
8413;SDS011;4244;48.684;9.028;2022-09-14T13:14:58;4.57;;;4.17;;
8413;SDS011;4244;48.684;9.028;2022-09-14T13:17:27;7.27;;;4.10;;
8413;SDS011;4244;48.684;9.028;2022-09-14T13:19:54;4.57;;;3.70;;
8413;SDS011;4244;48.684;9.028;2022-09-14T13:22:25;4.40;;;4.00;;
8413;SDS011;4244;48.684;9.028;2022-09-14T13:24:53;6.63;;;3.20;;
8413;SDS011;4244;48.684;9.028;2022-09-14T13:27:24;5.23;;;3.00;;
8413;SDS011;4244;48.684;9.028;2022-09-14T13:30:03;5.80;;;3.60;;
8413;SDS011;4244;48.684;9.028;2022-09-14T13:32:29;5.33;;;3.27;;
8413;SDS011;4244;48.684;9.028;2022-09-14T13:34:56;4.10;;;3.00;;
8413;SDS011;4244;48.684;9.028;2022-09-14T13:37:22;3.23;;;2.93;;
8413;SDS011;4244;48.684;9.028;2022-09-14T13:39:49;3.43;;;3.13;;
8413;SDS011;4244;48.684;9.028;2022-09-14T13:42:16;4.53;;;3.00;;
8413;SDS011;4244;48.684;9.028;2022-09-14T13:44:42;4.97;;;2.50;;
8413;SDS011;4244;48.684;9.028;2022-09-14T13:47:14;3.53;;;2.50;;
8413;SDS011;4244;48.684;9.028;2022-09-14T13:49:41;6.80;;;2.53;;
8413;SDS011;4244;48.684;9.028;2022-09-14T13:54:50;2.80;;;2.17;;
8413;SDS011;4244;48.684;9.028;2022-09-14T13:57:19;3.67;;;3.03;;
8413;SDS011;4244;48.684;9.028;2022-09-14T14:02:47;2.77;;;2.40;;
8413;SDS011;4244;48.684;9.028;2022-09-14T14:07:48;2.97;;;2.50;;
8413;SDS011;4244;48.684;9.028;2022-09-14T14:10:31;2.97;;;2.30;;
8413;SDS011;4244;48.684;9.028;2022-09-14T14:12:59;4.53;;;2.77;;
8413;SDS011;4244;48.684;9.028;2022-09-14T14:17:51;2.90;;;2.63;;
8413;SDS011;4244;48.684;9.028;2022-09-14T14:25:40;4.50;;;2.23;;
8413;SDS011;4244;48.684;9.028;2022-09-14T14:28:25;2.80;;;1.50;;
8413;SDS011;4244;48.684;9.028;2022-09-14T14:30:53;2.57;;;1.57;;
8413;SDS011;4244;48.684;9.028;2022-09-14T14:33:21;2.03;;;1.70;;
8413;SDS011;4244;48.684;9.028;2022-09-14T14:35:47;2.53;;;1.80;;
8413;SDS011;4244;48.684;9.028;2022-09-14T14:38:16;5.47;;;2.33;;
8413;SDS011;4244;48.684;9.028;2022-09-14T14:40:42;1.77;;;1.33;;
8413;SDS011;4244;48.684;9.028;2022-09-14T14:43:09;2.27;;;1.80;;
8413;SDS011;4244;48.684;9.028;2022-09-14T14:45:39;2.43;;;1.60;;
8413;SDS011;4244;48.684;9.028;2022-09-14T14:48:05;2.53;;;1.30;;
8413;SDS011;4244;48.684;9.028;2022-09-14T14:50:33;3.23;;;2.47;;
8413;SDS011;4244;48.684;9.028;2022-09-14T14:53:00;1.50;;;1.30;;
8413;SDS011;4244;48.684;9.028;2022-09-14T14:55:26;1.80;;;1.10;;
8413;SDS011;4244;48.684;9.028;2022-09-14T14:57:56;2.40;;;1.40;;
8413;SDS011;4244;48.684;9.028;2022-09-14T15:00:27;1.97;;;1.43;;
8413;SDS011;4244;48.684;9.028;2022-09-14T15:02:55;2.47;;;1.70;;
8413;SDS011;4244;48.684;9.028;2022-09-14T15:05:21;1.53;;;1.20;;
8413;SDS011;4244;48.684;9.028;2022-09-14T15:07:47;1.90;;;1.30;;
8413;SDS011;4244;48.684;9.028;2022-09-14T15:10:17;1.93;;;1.13;;
8413;SDS011;4244;48.684;9.028;2022-09-14T15:12:44;1.70;;;1.20;;
8413;SDS011;4244;48.684;9.028;2022-09-14T15:15:11;3.97;;;1.30;;
8413;SDS011;4244;48.684;9.028;2022-09-14T15:17:40;3.53;;;1.10;;
8413;SDS011;4244;48.684;9.028;2022-09-14T15:20:06;1.50;;;1.30;;
8413;SDS011;4244;48.684;9.028;2022-09-14T15:22:33;2.70;;;1.40;;
8413;SDS011;4244;48.684;9.028;2022-09-14T15:24:59;2.60;;;1.40;;
8413;SDS011;4244;48.684;9.028;2022-09-14T15:27:24;2.80;;;1.10;;
8413;SDS011;4244;48.684;9.028;2022-09-14T15:29:50;1.60;;;1.00;;
8413;SDS011;4244;48.684;9.028;2022-09-14T15:32:16;3.83;;;1.10;;
8413;SDS011;4244;48.684;9.028;2022-09-14T15:34:41;2.60;;;1.17;;
8413;SDS011;4244;48.684;9.028;2022-09-14T15:37:08;1.50;;;1.10;;
8413;SDS011;4244;48.684;9.028;2022-09-14T15:39:34;2.27;;;1.77;;
8413;SDS011;4244;48.684;9.028;2022-09-14T15:41:59;1.70;;;1.57;;
8413;SDS011;4244;48.684;9.028;2022-09-14T15:44:25;3.23;;;1.30;;
8413;SDS011;4244;48.684;9.028;2022-09-14T15:46:51;2.63;;;1.30;;
8413;SDS011;4244;48.684;9.028;2022-09-14T15:49:18;2.87;;;1.30;;
8413;SDS011;4244;48.684;9.028;2022-09-14T15:51:47;4.33;;;1.40;;
8413;SDS011;4244;48.684;9.028;2022-09-14T15:54:14;2.80;;;1.07;;
8413;SDS011;4244;48.684;9.028;2022-09-14T15:56:40;1.80;;;1.20;;
8413;SDS011;4244;48.684;9.028;2022-09-14T15:59:06;1.57;;;1.17;;
8413;SDS011;4244;48.684;9.028;2022-09-14T16:01:32;2.13;;;1.10;;
8413;SDS011;4244;48.684;9.028;2022-09-14T16:03:58;3.63;;;1.20;;
8413;SDS011;4244;48.684;9.028;2022-09-14T16:06:25;7.90;;;1.30;;
8413;SDS011;4244;48.684;9.028;2022-09-14T16:08:52;3.03;;;1.03;;
8413;SDS011;4244;48.684;9.028;2022-09-14T16:11:18;2.43;;;1.17;;
8413;SDS011;4244;48.684;9.028;2022-09-14T16:13:44;2.43;;;1.23;;
8413;SDS011;4244;48.684;9.028;2022-09-14T16:16:10;1.40;;;1.10;;
8413;SDS011;4244;48.684;9.028;2022-09-14T16:18:38;2.73;;;1.40;;
8413;SDS011;4244;48.684;9.028;2022-09-14T16:21:13;2.10;;;1.70;;
8413;SDS011;4244;48.684;9.028;2022-09-14T16:23:41;1.43;;;1.13;;
8413;SDS011;4244;48.684;9.028;2022-09-14T16:26:09;1.30;;;1.10;;
8413;SDS011;4244;48.684;9.028;2022-09-14T16:28:37;1.50;;;1.10;;
8413;SDS011;4244;48.684;9.028;2022-09-14T16:31:05;1.70;;;1.40;;
8413;SDS011;4244;48.684;9.028;2022-09-14T16:33:38;3.93;;;1.00;;
8413;SDS011;4244;48.684;9.028;2022-09-14T16:36:07;2.00;;;1.40;;
8413;SDS011;4244;48.684;9.028;2022-09-14T16:38:34;3.20;;;1.40;;
8413;SDS011;4244;48.684;9.028;2022-09-14T16:41:01;1.80;;;1.40;;
8413;SDS011;4244;48.684;9.028;2022-09-14T16:43:27;3.67;;;1.40;;
8413;SDS011;4244;48.684;9.028;2022-09-14T16:46:03;3.13;;;1.30;;
8413;SDS011;4244;48.684;9.028;2022-09-14T16:48:41;2.10;;;1.50;;
8413;SDS011;4244;48.684;9.028;2022-09-14T16:51:08;1.70;;;1.30;;
8413;SDS011;4244;48.684;9.028;2022-09-14T16:53:35;3.07;;;1.50;;
8413;SDS011;4244;48.684;9.028;2022-09-14T16:56:07;1.70;;;1.10;;
8413;SDS011;4244;48.684;9.028;2022-09-14T16:58:35;3.10;;;1.40;;
8413;SDS011;4244;48.684;9.028;2022-09-14T17:01:05;2.37;;;1.67;;
8413;SDS011;4244;48.684;9.028;2022-09-14T17:03:35;1.83;;;1.40;;
8413;SDS011;4244;48.684;9.028;2022-09-14T17:06:02;2.33;;;1.33;;
8413;SDS011;4244;48.684;9.028;2022-09-14T17:08:29;3.00;;;1.23;;
8413;SDS011;4244;48.684;9.028;2022-09-14T17:10:55;3.63;;;1.70;;
8413;SDS011;4244;48.684;9.028;2022-09-14T17:13:21;1.40;;;1.10;;
8413;SDS011;4244;48.684;9.028;2022-09-14T17:15:47;2.70;;;1.40;;
8413;SDS011;4244;48.684;9.028;2022-09-14T17:18:13;1.70;;;1.50;;
8413;SDS011;4244;48.684;9.028;2022-09-14T17:20:39;2.30;;;1.60;;
8413;SDS011;4244;48.684;9.028;2022-09-14T17:23:04;2.50;;;1.57;;
8413;SDS011;4244;48.684;9.028;2022-09-14T17:25:31;3.00;;;1.30;;
8413;SDS011;4244;48.684;9.028;2022-09-14T17:27:57;2.13;;;1.67;;
8413;SDS011;4244;48.684;9.028;2022-09-14T17:30:23;3.90;;;1.70;;
8413;SDS011;4244;48.684;9.028;2022-09-14T17:32:48;2.20;;;1.63;;
8413;SDS011;4244;48.684;9.028;2022-09-14T17:35:14;2.20;;;1.60;;
8413;SDS011;4244;48.684;9.028;2022-09-14T17:37:40;3.13;;;1.70;;
8413;SDS011;4244;48.684;9.028;2022-09-14T17:40:06;3.50;;;1.63;;
8413;SDS011;4244;48.684;9.028;2022-09-14T17:42:33;5.13;;;2.03;;
8413;SDS011;4244;48.684;9.028;2022-09-14T17:44:59;3.57;;;2.17;;
8413;SDS011;4244;48.684;9.028;2022-09-14T17:47:25;3.30;;;1.70;;
8413;SDS011;4244;48.684;9.028;2022-09-14T17:49:51;4.03;;;1.67;;
8413;SDS011;4244;48.684;9.028;2022-09-14T17:52:17;3.60;;;1.57;;
8413;SDS011;4244;48.684;9.028;2022-09-14T17:54:42;4.17;;;1.90;;
8413;SDS011;4244;48.684;9.028;2022-09-14T17:57:08;2.90;;;2.00;;
8413;SDS011;4244;48.684;9.028;2022-09-14T17:59:33;2.50;;;1.73;;
8413;SDS011;4244;48.684;9.028;2022-09-14T18:01:59;3.63;;;1.93;;
8413;SDS011;4244;48.684;9.028;2022-09-14T18:04:24;3.60;;;1.93;;
8413;SDS011;4244;48.684;9.028;2022-09-14T18:06:50;2.23;;;1.70;;
8413;SDS011;4244;48.684;9.028;2022-09-14T18:09:18;2.07;;;1.40;;